createdAt,value
2017-09-17T00:00:37.508Z,54.70
2017-09-17T00:03:05.210Z,54.70
2017-09-17T00:05:32.980Z,54.80
2017-09-17T00:08:00.636Z,54.80
2017-09-17T00:10:28.250Z,54.70
2017-09-17T00:12:55.959Z,54.80
2017-09-17T00:15:23.617Z,54.80
2017-09-17T00:17:51.366Z,54.80
2017-09-17T00:22:46.702Z,55.00
2017-09-17T00:25:14.362Z,55.00
2017-09-17T00:27:42.126Z,55.00
2017-09-17T00:30:09.786Z,54.90
2017-09-17T00:35:05.211Z,55.50
2017-09-17T00:37:32.873Z,54.90
2017-09-17T00:42:42.717Z,54.60
2017-09-17T00:45:10.385Z,54.60
2017-09-17T00:47:38.042Z,54.40
2017-09-17T00:52:33.577Z,54.20
2017-09-17T00:55:01.202Z,54.10
2017-09-17T00:57:29.719Z,54.40
2017-09-17T00:59:57.377Z,54.40
2017-09-17T01:04:52.699Z,54.60
2017-09-17T01:07:20.360Z,54.50
2017-09-17T01:12:15.685Z,54.70
2017-09-17T01:14:43.350Z,54.70
2017-09-17T01:19:38.669Z,54.80
2017-09-17T01:22:06.325Z,54.80
2017-09-17T01:27:01.746Z,54.70
2017-09-17T01:29:30.227Z,54.70
2017-09-17T01:34:25.650Z,54.70
2017-09-17T01:36:53.312Z,54.70
2017-09-17T01:39:20.931Z,54.70
2017-09-17T01:41:48.719Z,54.50
2017-09-17T01:44:16.292Z,54.50
2017-09-17T01:46:43.954Z,54.50
2017-09-17T01:51:39.378Z,55.40
2017-09-17T01:54:07.243Z,54.70
2017-09-17T01:59:02.753Z,54.80
2017-09-17T02:01:30.327Z,54.70
2017-09-17T02:03:58.088Z,54.70
2017-09-17T02:06:25.749Z,54.70
2017-09-17T02:14:00.197Z,54.70
2017-09-17T02:16:27.965Z,54.60
2017-09-17T02:18:55.576Z,54.30
2017-09-17T02:21:23.374Z,54.30
2017-09-17T02:23:51.037Z,54.30
2017-09-17T02:26:18.709Z,54.20
2017-09-17T02:28:46.368Z,54.20
2017-09-17T02:36:09.539Z,54.30
2017-09-17T02:38:37.215Z,54.30
2017-09-17T02:41:04.876Z,54.40
2017-09-17T02:46:00.301Z,54.50
2017-09-17T02:48:27.959Z,54.50
2017-09-17T02:50:55.575Z,54.60
2017-09-17T02:53:23.280Z,54.60
2017-09-17T02:55:50.942Z,54.50
2017-09-17T02:58:18.556Z,54.60
2017-09-17T03:00:46.351Z,54.60
2017-09-17T03:03:13.923Z,54.60
2017-09-17T03:05:41.582Z,54.50
2017-09-17T03:10:36.974Z,54.60
2017-09-17T03:13:04.756Z,54.60
2017-09-17T03:15:32.430Z,54.50
2017-09-17T03:18:00.090Z,54.60
2017-09-17T03:22:56.229Z,54.50
2017-09-17T03:27:52.370Z,54.40
2017-09-17T03:32:47.793Z,54.60
2017-09-17T03:35:15.455Z,54.40
2017-09-17T03:40:22.242Z,54.50
2017-09-17T03:47:45.416Z,54.20
2017-09-17T03:50:13.003Z,54.20
2017-09-17T03:52:40.649Z,54.20
2017-09-17T03:55:08.310Z,54.30
2017-09-17T03:57:36.074Z,54.20
2017-09-17T04:00:03.823Z,54.40
2017-09-17T04:04:59.159Z,54.40
2017-09-17T04:07:26.817Z,54.40
2017-09-17T04:09:55.297Z,54.30
2017-09-17T04:12:23.149Z,54.30
2017-09-17T04:14:50.719Z,54.30
2017-09-17T04:17:18.388Z,54.30
2017-09-17T04:24:41.553Z,54.30
2017-09-17T04:27:09.229Z,54.40
2017-09-17T04:29:36.992Z,54.40
2017-09-17T04:32:04.680Z,54.40
2017-09-17T04:37:00.282Z,54.50
2017-09-17T04:39:27.902Z,54.50
2017-09-17T04:41:55.600Z,54.60
2017-09-17T04:44:23.261Z,54.50
2017-09-17T04:46:50.923Z,54.50
2017-09-17T04:51:47.063Z,54.50
2017-09-17T04:56:42.390Z,54.50
2017-09-17T04:59:10.275Z,54.50
2017-09-17T05:04:17.229Z,54.40
2017-09-17T05:06:44.801Z,54.20
2017-09-17T05:09:12.550Z,54.00
2017-09-17T05:14:08.092Z,53.90
2017-09-17T05:16:35.751Z,53.90
2017-09-17T05:21:31.176Z,54.10
2017-09-17T05:23:58.835Z,54.10
2017-09-17T05:26:26.601Z,55.00
2017-09-17T05:28:54.260Z,54.30
2017-09-17T05:33:49.580Z,54.30
2017-09-17T05:36:17.226Z,54.30
2017-09-17T05:38:44.901Z,54.40
2017-09-17T05:41:12.664Z,54.40
2017-09-17T05:43:40.324Z,54.30
2017-09-17T05:46:08.585Z,54.30
2017-09-17T05:48:36.245Z,54.30
2017-09-17T05:51:04.214Z,54.30
2017-09-17T05:55:59.552Z,54.10
2017-09-17T05:58:27.218Z,54.10
2017-09-17T06:00:54.875Z,54.20
2017-09-17T06:05:50.405Z,54.30
2017-09-17T06:10:46.640Z,54.20
2017-09-17T06:13:14.258Z,54.20
2017-09-17T06:15:41.961Z,55.50
2017-09-17T06:18:09.808Z,56.60
2017-09-17T06:20:37.385Z,57.00
2017-09-17T06:23:05.048Z,56.70
2017-09-17T06:30:40.645Z,56.70
2017-09-17T06:35:36.864Z,57.50
2017-09-17T06:38:04.646Z,57.50
2017-09-17T06:40:32.288Z,57.60
2017-09-17T06:45:27.693Z,57.20
2017-09-17T06:47:55.374Z,57.10
2017-09-17T06:50:23.033Z,57.30
2017-09-17T06:55:18.457Z,57.00
2017-09-17T06:57:46.121Z,57.10
2017-09-17T07:00:13.892Z,56.90
2017-09-17T07:02:41.542Z,56.80
2017-09-17T07:07:37.875Z,56.60
2017-09-17T07:10:06.369Z,56.20
2017-09-17T07:15:01.687Z,56.80
2017-09-17T07:17:30.170Z,56.10
2017-09-17T07:19:57.920Z,56.00
2017-09-17T07:22:26.308Z,56.00
2017-09-17T07:24:54.054Z,55.60
2017-09-17T07:27:21.633Z,55.70
2017-09-17T07:32:20.504Z,55.80
2017-09-17T07:34:48.289Z,55.40
2017-09-17T07:37:16.042Z,55.40
2017-09-17T07:39:43.703Z,55.20
2017-09-17T07:42:12.202Z,55.10
2017-09-17T07:47:07.725Z,54.40
2017-09-17T07:54:42.465Z,54.20
2017-09-17T07:59:37.804Z,53.80
2017-09-17T08:02:06.591Z,53.70
2017-09-17T08:07:02.016Z,53.60
2017-09-17T08:09:29.759Z,53.60
2017-09-17T08:11:57.528Z,53.50
2017-09-17T08:14:25.183Z,53.40
2017-09-17T08:19:20.527Z,53.40
2017-09-17T08:21:48.181Z,53.60
2017-09-17T08:24:15.841Z,53.50
2017-09-17T08:29:11.250Z,54.60
2017-09-17T08:31:38.927Z,54.60
2017-09-17T08:34:06.692Z,54.60
2017-09-17T08:36:34.353Z,54.50
2017-09-17T08:41:29.771Z,54.60
2017-09-17T08:43:57.543Z,54.50
2017-09-17T08:46:25.999Z,54.30
2017-09-17T08:48:53.760Z,54.00
2017-09-17T08:51:21.337Z,53.70
2017-09-17T08:53:49.006Z,53.80
2017-09-17T08:58:44.419Z,54.00
2017-09-17T09:01:12.079Z,54.00
2017-09-17T09:03:39.843Z,54.00
2017-09-17T09:06:07.504Z,53.70
2017-09-17T09:11:02.827Z,53.60
2017-09-17T09:13:31.391Z,53.70
2017-09-17T09:18:38.096Z,53.10
2017-09-17T09:21:05.756Z,53.10
2017-09-17T09:26:01.180Z,52.70
2017-09-17T09:28:28.837Z,52.70
2017-09-17T09:30:56.500Z,52.60
2017-09-17T09:35:52.025Z,52.60
2017-09-17T09:38:21.307Z,52.40
2017-09-17T09:40:53.991Z,52.40
2017-09-17T09:45:51.765Z,52.10
2017-09-17T09:50:47.000Z,52.10
2017-09-17T09:53:14.765Z,51.90
2017-09-17T09:55:42.423Z,51.70
2017-09-17T10:00:38.667Z,52.20
2017-09-17T10:03:07.144Z,51.50
2017-09-17T10:05:34.809Z,51.30
2017-09-17T10:08:02.566Z,51.20
2017-09-17T10:10:30.228Z,51.10
2017-09-17T10:15:25.740Z,51.20
2017-09-17T10:17:53.311Z,51.00
2017-09-17T10:20:20.958Z,50.80
2017-09-17T10:22:49.362Z,50.70
2017-09-17T10:25:17.116Z,50.50
2017-09-17T10:30:14.278Z,49.70
2017-09-17T10:32:42.112Z,49.10
2017-09-17T10:37:38.096Z,48.70
2017-09-17T10:40:05.846Z,48.20
2017-09-17T10:50:14.814Z,47.50
2017-09-17T10:52:43.295Z,47.40
2017-09-17T10:55:10.964Z,46.90
2017-09-17T10:57:38.732Z,46.90
2017-09-17T11:00:07.294Z,46.90
2017-09-17T11:02:34.858Z,46.80
2017-09-17T11:05:03.543Z,47.00
2017-09-17T11:07:31.205Z,46.80
2017-09-17T11:12:26.624Z,46.50
2017-09-17T11:14:54.372Z,46.30
2017-09-17T11:17:21.948Z,46.20
2017-09-17T11:22:18.381Z,46.40
2017-09-17T11:24:46.038Z,46.40
2017-09-17T11:27:13.715Z,46.30
2017-09-17T11:29:41.375Z,46.20
2017-09-17T13:06:11.352Z,57.70
2017-09-17T13:08:38.935Z,57.50
2017-09-17T13:13:35.067Z,57.50
2017-09-17T13:18:30.388Z,56.50
2017-09-17T13:20:58.153Z,55.70
2017-09-17T13:23:25.810Z,54.60
2017-09-17T13:28:21.235Z,53.60
2017-09-17T13:30:49.717Z,53.20
2017-09-17T13:35:45.956Z,52.80
2017-09-17T13:38:14.636Z,53.40
2017-09-17T13:40:42.203Z,52.90
2017-09-17T13:43:10.870Z,52.60
2017-09-17T13:45:38.441Z,52.20
2017-09-17T13:50:33.870Z,52.30
2017-09-17T13:53:01.485Z,52.10
2017-09-17T13:55:29.283Z,52.10
2017-09-17T14:00:26.539Z,52.50
2017-09-17T14:02:54.116Z,52.40
2017-09-17T14:08:10.940Z,52.30
2017-09-17T14:13:18.249Z,51.90
2017-09-17T14:18:13.663Z,51.90
2017-09-17T14:20:41.286Z,51.70
2017-09-17T14:23:08.985Z,51.70
2017-09-17T14:28:04.836Z,52.60
2017-09-17T14:30:32.581Z,48.60
2017-09-17T14:35:27.989Z,48.10
2017-09-17T14:37:55.665Z,50.00
2017-09-17T14:40:23.327Z,50.70
2017-09-17T14:45:19.654Z,51.60
2017-09-17T14:47:47.228Z,51.30
2017-09-17T14:52:43.369Z,49.40
2017-09-17T14:57:38.694Z,47.60
2017-09-17T15:00:06.452Z,48.20
2017-09-17T15:02:34.079Z,49.50
2017-09-17T15:05:01.861Z,50.20
2017-09-17T15:07:30.812Z,51.20
2017-09-17T15:09:57.209Z,51.40
2017-09-17T15:12:24.861Z,51.60
2017-09-17T15:17:20.367Z,52.30
2017-09-17T15:19:47.954Z,52.50
2017-09-17T15:22:15.798Z,52.30
2017-09-17T15:24:43.363Z,52.80
2017-09-17T15:29:39.607Z,52.70
2017-09-17T15:32:07.359Z,52.70
2017-09-17T15:37:02.690Z,53.10
2017-09-17T15:42:10.504Z,53.90
2017-09-17T15:44:38.164Z,54.10
2017-09-17T15:47:05.826Z,54.30
2017-09-17T15:52:01.147Z,54.30
2017-09-17T15:59:40.408Z,54.20
2017-09-17T16:02:08.072Z,53.90
2017-09-17T16:07:03.501Z,53.40
2017-09-17T16:09:31.381Z,53.80
2017-09-17T16:14:26.784Z,53.80
2017-09-17T16:16:54.453Z,53.70
2017-09-17T16:19:22.204Z,54.00
2017-09-17T16:21:49.866Z,53.80
2017-09-17T16:26:45.381Z,53.90
2017-09-17T16:29:12.951Z,53.90
2017-09-17T16:31:40.699Z,54.00
2017-09-17T16:36:36.123Z,54.90
2017-09-17T16:39:03.655Z,54.10
2017-09-17T16:41:31.447Z,53.90
2017-09-17T16:46:26.761Z,53.90
2017-09-17T16:48:54.450Z,54.10
2017-09-17T16:51:22.069Z,54.10
2017-09-17T16:53:49.768Z,54.30
2017-09-17T16:56:18.341Z,54.10
2017-09-17T16:58:46.933Z,54.10
2017-09-17T17:03:42.347Z,54.40
2017-09-17T17:06:10.812Z,54.50
2017-09-17T17:08:39.203Z,54.30
2017-09-17T17:13:34.629Z,54.70
2017-09-17T17:16:02.292Z,54.30
2017-09-17T17:21:09.906Z,54.50
2017-09-17T17:23:37.866Z,54.80
2017-09-17T17:26:05.530Z,54.70
2017-09-17T17:31:00.953Z,54.70
2017-09-17T17:33:28.610Z,54.50
2017-09-17T17:35:57.091Z,54.60
2017-09-17T17:38:24.940Z,54.70
2017-09-17T17:40:52.600Z,54.60
2017-09-17T17:43:20.193Z,54.60
2017-09-17T17:48:16.627Z,54.70
2017-09-17T17:53:12.046Z,54.80
2017-09-17T17:55:40.628Z,55.00
2017-09-17T17:58:08.288Z,54.80
2017-09-17T18:03:04.532Z,55.50
2017-09-17T18:05:32.281Z,55.30
2017-09-17T18:10:33.570Z,56.70
2017-09-17T18:13:01.984Z,57.60
2017-09-17T18:15:29.735Z,58.50
2017-09-17T18:17:57.459Z,59.00
2017-09-17T18:22:53.087Z,58.40
2017-09-17T18:25:21.721Z,58.80
2017-09-17T18:30:17.620Z,58.70
2017-09-17T18:32:45.264Z,58.30
2017-09-17T18:37:42.513Z,58.40
2017-09-17T18:40:10.092Z,58.40
2017-09-17T18:45:22.204Z,58.40
2017-09-17T18:50:23.729Z,59.60
2017-09-17T18:52:51.853Z,58.50
2017-09-17T18:55:19.712Z,58.70
2017-09-17T19:00:15.217Z,57.90
2017-09-17T19:02:42.792Z,58.40
2017-09-17T19:05:10.536Z,58.60
2017-09-17T19:10:05.985Z,58.10
2017-09-17T19:15:02.733Z,58.10
2017-09-17T19:17:30.810Z,58.00
2017-09-17T19:22:26.786Z,57.90
2017-09-17T19:24:54.584Z,58.20
2017-09-17T19:27:22.246Z,57.70
2017-09-17T19:32:17.892Z,59.00
2017-09-17T19:34:45.665Z,58.20
2017-09-17T19:37:13.503Z,59.00
2017-09-17T19:39:41.067Z,58.90
2017-09-17T19:42:08.823Z,59.00
2017-09-17T19:44:36.558Z,58.40
2017-09-17T19:47:04.264Z,58.80
2017-09-17T19:52:00.822Z,58.60
2017-09-17T19:54:28.476Z,58.20
2017-09-17T19:59:23.984Z,58.40
2017-09-17T20:01:51.559Z,58.40
2017-09-17T20:04:19.679Z,58.90
2017-09-17T20:09:26.605Z,59.00
2017-09-17T20:11:54.283Z,58.50
2017-09-17T20:14:21.944Z,58.90
2017-09-17T20:21:46.853Z,59.70
2017-09-17T20:26:43.534Z,59.70
2017-09-17T20:29:11.192Z,59.90
2017-09-17T20:31:39.459Z,59.90
2017-09-17T20:34:07.533Z,59.40
2017-09-17T20:36:35.561Z,59.60
2017-09-17T20:41:45.403Z,58.70
2017-09-17T20:44:13.829Z,59.00
2017-09-17T20:46:41.627Z,59.10
2017-09-17T20:49:09.373Z,59.00
2017-09-17T20:56:43.902Z,59.70
2017-09-17T20:59:11.474Z,59.40
2017-09-17T21:04:06.900Z,59.90
2017-09-17T21:06:34.555Z,59.00
2017-09-17T21:09:02.200Z,60.20
2017-09-17T21:11:29.872Z,60.40
2017-09-17T21:13:57.645Z,60.10
2017-09-17T21:16:25.302Z,60.70
2017-09-17T21:18:53.068Z,60.20
2017-09-17T21:21:20.729Z,60.60
2017-09-17T21:26:16.147Z,60.20
2017-09-17T21:28:43.895Z,60.20
2017-09-17T21:31:11.472Z,59.90
2017-09-17T21:36:06.909Z,60.10
2017-09-17T21:38:34.555Z,59.80
2017-09-17T21:41:02.316Z,59.60
2017-09-17T21:43:29.941Z,59.60
2017-09-17T21:45:57.644Z,59.50
2017-09-17T21:48:25.485Z,59.50
2017-09-17T21:50:53.965Z,59.40
2017-09-17T21:55:49.285Z,59.30
2017-09-17T21:58:16.867Z,59.30
2017-09-17T22:03:12.372Z,59.20
2017-09-17T22:05:39.907Z,59.10
2017-09-17T22:08:07.535Z,59.20
2017-09-17T22:10:35.264Z,59.00
2017-09-17T22:13:03.830Z,58.90
2017-09-17T22:20:38.283Z,58.50
2017-09-17T22:23:06.883Z,58.70
2017-09-17T22:25:34.547Z,58.30
2017-09-17T22:30:29.904Z,58.20
2017-09-17T22:32:58.553Z,58.20
2017-09-17T22:35:26.210Z,58.20
2017-09-17T22:40:21.631Z,58.20
2017-09-17T22:42:49.378Z,58.40
2017-09-17T22:45:17.054Z,58.50
2017-09-17T22:47:44.719Z,58.40
2017-09-17T22:52:40.137Z,58.60
2017-09-17T22:55:07.799Z,58.50
2017-09-17T22:57:35.542Z,58.40
2017-09-17T23:02:30.885Z,58.40
2017-09-17T23:04:58.544Z,58.40
2017-09-17T23:07:26.312Z,58.40
2017-09-17T23:09:53.931Z,58.30
2017-09-17T23:12:21.628Z,58.20
2017-09-17T23:14:49.393Z,58.20
2017-09-17T23:17:17.052Z,58.20
2017-09-17T23:19:44.711Z,58.20
2017-09-17T23:24:40.139Z,58.20
2017-09-17T23:27:07.793Z,58.10
2017-09-17T23:29:35.557Z,58.20
2017-09-17T23:32:03.175Z,58.20
2017-09-17T23:34:30.878Z,58.10
2017-09-17T23:36:58.640Z,58.20
2017-09-17T23:39:26.302Z,58.20
2017-09-17T23:41:53.963Z,58.20
2017-09-17T23:49:28.601Z,58.00
2017-09-17T23:51:56.174Z,58.10
2017-09-17T23:54:23.836Z,57.70
2017-09-17T23:59:19.260Z,57.60
